sensor_id;sensor_type;location;lat;lon;timestamp;pressure;altitude;pressure_sealevel;temperature;humidity
59073;BME280;44859;51.934;15.554;2023-10-19T00:02:15;98885.16;;;3.86;87.48
59073;BME280;44859;51.934;15.554;2023-10-19T00:05:22;98883.85;;;3.84;87.43
59073;BME280;44859;51.934;15.554;2023-10-19T00:08:10;98879.13;;;3.80;87.39
59073;BME280;44859;51.934;15.554;2023-10-19T00:11:21;98875.50;;;3.79;87.65
59073;BME280;44859;51.934;15.554;2023-10-19T00:14:43;98871.59;;;3.76;87.93
59073;BME280;44859;51.934;15.554;2023-10-19T00:17:23;98869.15;;;3.72;87.91
59073;BME280;44859;51.934;15.554;2023-10-19T00:20:24;98859.77;;;3.67;88.23
59073;BME280;44859;51.934;15.554;2023-10-19T00:23:41;98850.86;;;3.64;88.38
59073;BME280;44859;51.934;15.554;2023-10-19T00:26:53;98844.11;;;3.64;88.48
59073;BME280;44859;51.934;15.554;2023-10-19T00:30:12;98832.56;;;3.61;88.61
59073;BME280;44859;51.934;15.554;2023-10-19T00:33:16;98819.09;;;3.59;88.82
59073;BME280;44859;51.934;15.554;2023-10-19T00:36:55;98808.48;;;3.59;89.08
59073;BME280;44859;51.934;15.554;2023-10-19T00:39:47;98801.63;;;3.57;89.15
59073;BME280;44859;51.934;15.554;2023-10-19T00:42:44;98788.52;;;3.54;89.28
59073;BME280;44859;51.934;15.554;2023-10-19T00:45:38;98785.30;;;3.53;89.46
59073;BME280;44859;51.934;15.554;2023-10-19T00:51:48;98776.36;;;3.50;89.83
59073;BME280;44859;51.934;15.554;2023-10-19T00:54:47;98775.52;;;3.54;89.67
59073;BME280;44859;51.934;15.554;2023-10-19T00:58:26;98778.95;;;3.55;89.74
59073;BME280;44859;51.934;15.554;2023-10-19T01:05:00;98745.29;;;3.50;90.02
59073;BME280;44859;51.934;15.554;2023-10-19T01:08:43;98735.98;;;3.48;90.14
59073;BME280;44859;51.934;15.554;2023-10-19T01:11:46;98733.20;;;3.49;90.29
59073;BME280;44859;51.934;15.554;2023-10-19T01:18:32;98722.38;;;3.50;90.38
59073;BME280;44859;51.934;15.554;2023-10-19T01:21:30;98728.58;;;3.46;90.46
59073;BME280;44859;51.934;15.554;2023-10-19T01:24:38;98725.66;;;3.46;90.50
59073;BME280;44859;51.934;15.554;2023-10-19T01:27:54;98721.83;;;3.41;90.84
59073;BME280;44859;51.934;15.554;2023-10-19T01:34:27;98711.61;;;3.36;90.97
59073;BME280;44859;51.934;15.554;2023-10-19T01:40:42;98694.19;;;3.33;91.26
59073;BME280;44859;51.934;15.554;2023-10-19T01:47:21;98679.43;;;3.33;91.41
59073;BME280;44859;51.934;15.554;2023-10-19T01:50:55;98671.52;;;3.36;91.62
59073;BME280;44859;51.934;15.554;2023-10-19T01:54:13;98659.98;;;3.38;91.69
59073;BME280;44859;51.934;15.554;2023-10-19T01:57:45;98660.09;;;3.45;91.77
59073;BME280;44859;51.934;15.554;2023-10-19T02:01:13;98662.97;;;3.46;91.77
59073;BME280;44859;51.934;15.554;2023-10-19T02:04:52;98656.05;;;3.46;91.41
59073;BME280;44859;51.934;15.554;2023-10-19T02:08:45;98645.22;;;3.43;91.62
59073;BME280;44859;51.934;15.554;2023-10-19T02:12:04;98651.70;;;3.41;91.76
59073;BME280;44859;51.934;15.554;2023-10-19T02:21:57;98636.02;;;3.34;91.86
59073;BME280;44859;51.934;15.554;2023-10-19T02:25:15;98622.88;;;3.28;92.22
59073;BME280;44859;51.934;15.554;2023-10-19T02:28:56;98616.05;;;3.25;92.13
59073;BME280;44859;51.934;15.554;2023-10-19T02:32:12;98615.19;;;3.25;92.34
59073;BME280;44859;51.934;15.554;2023-10-19T02:35:00;98613.67;;;3.23;92.60
59073;BME280;44859;51.934;15.554;2023-10-19T02:37:50;98608.32;;;3.22;92.57
59073;BME280;44859;51.934;15.554;2023-10-19T02:43:42;98602.52;;;3.20;92.91
59073;BME280;44859;51.934;15.554;2023-10-19T02:47:10;98598.47;;;3.17;93.07
59073;BME280;44859;51.934;15.554;2023-10-19T02:49:55;98589.39;;;3.14;93.19
59073;BME280;44859;51.934;15.554;2023-10-19T02:52:52;98576.80;;;3.12;93.34
59073;BME280;44859;51.934;15.554;2023-10-19T02:56:56;98584.98;;;3.11;93.23
59073;BME280;44859;51.934;15.554;2023-10-19T02:59:44;98587.23;;;3.11;93.49
59073;BME280;44859;51.934;15.554;2023-10-19T03:02:17;98583.60;;;3.11;93.50
59073;BME280;44859;51.934;15.554;2023-10-19T03:05:07;98581.48;;;3.13;93.73
59073;BME280;44859;51.934;15.554;2023-10-19T03:08:05;98583.05;;;3.16;93.41
59073;BME280;44859;51.934;15.554;2023-10-19T03:11:14;98582.41;;;3.20;93.64
59073;BME280;44859;51.934;15.554;2023-10-19T03:14:10;98571.09;;;3.25;93.64
59073;BME280;44859;51.934;15.554;2023-10-19T03:17:03;98564.63;;;3.31;93.48
59073;BME280;44859;51.934;15.554;2023-10-19T03:20:50;98557.23;;;3.38;93.34
59073;BME280;44859;51.934;15.554;2023-10-19T03:23:50;98548.31;;;3.44;93.20
59073;BME280;44859;51.934;15.554;2023-10-19T03:27:02;98542.61;;;3.48;92.98
59073;BME280;44859;51.934;15.554;2023-10-19T03:29:49;98540.47;;;3.50;92.96
59073;BME280;44859;51.934;15.554;2023-10-19T03:36:05;98531.66;;;3.49;92.66
59073;BME280;44859;51.934;15.554;2023-10-19T03:38:58;98531.98;;;3.50;92.74
59073;BME280;44859;51.934;15.554;2023-10-19T03:45:47;98543.41;;;3.46;92.69
59073;BME280;44859;51.934;15.554;2023-10-19T03:48:44;98536.77;;;3.47;92.39
59073;BME280;44859;51.934;15.554;2023-10-19T03:58:21;98524.17;;;3.49;92.14
59073;BME280;44859;51.934;15.554;2023-10-19T04:00:54;98530.48;;;3.48;92.30
59073;BME280;44859;51.934;15.554;2023-10-19T04:03:49;98522.42;;;3.45;92.21
59073;BME280;44859;51.934;15.554;2023-10-19T04:07:10;98517.50;;;3.42;92.24
59073;BME280;44859;51.934;15.554;2023-10-19T04:10:03;98518.71;;;3.42;92.11
59073;BME280;44859;51.934;15.554;2023-10-19T04:16:33;98497.45;;;3.45;92.05
59073;BME280;44859;51.934;15.554;2023-10-19T04:19:19;98491.84;;;3.46;92.16
59073;BME280;44859;51.934;15.554;2023-10-19T04:21:51;98489.69;;;3.48;92.01
59073;BME280;44859;51.934;15.554;2023-10-19T04:24:51;98487.36;;;3.50;91.88
59073;BME280;44859;51.934;15.554;2023-10-19T04:28:45;98476.85;;;3.48;92.01
59073;BME280;44859;51.934;15.554;2023-10-19T04:35:25;98470.24;;;3.44;91.90
59073;BME280;44859;51.934;15.554;2023-10-19T04:38:23;98464.86;;;3.40;91.97
59073;BME280;44859;51.934;15.554;2023-10-19T04:41:08;98462.69;;;3.38;91.95
59073;BME280;44859;51.934;15.554;2023-10-19T04:43:52;98459.20;;;3.34;91.98
59073;BME280;44859;51.934;15.554;2023-10-19T04:49:21;98449.65;;;3.25;92.23
59073;BME280;44859;51.934;15.554;2023-10-19T04:52:09;98445.81;;;3.21;92.32
59073;BME280;44859;51.934;15.554;2023-10-19T04:54:46;98444.60;;;3.21;92.33
59073;BME280;44859;51.934;15.554;2023-10-19T04:57:38;98435.98;;;3.20;92.46
59073;BME280;44859;51.934;15.554;2023-10-19T05:00:28;98427.04;;;3.18;92.53
59073;BME280;44859;51.934;15.554;2023-10-19T05:03:31;98421.18;;;3.16;92.66
59073;BME280;44859;51.934;15.554;2023-10-19T05:06:33;98421.66;;;3.17;92.84
59073;BME280;44859;51.934;15.554;2023-10-19T05:09:21;98422.91;;;3.17;92.77
59073;BME280;44859;51.934;15.554;2023-10-19T05:12:41;98418.25;;;3.16;92.85
59073;BME280;44859;51.934;15.554;2023-10-19T05:15:13;98417.25;;;3.15;92.96
59073;BME280;44859;51.934;15.554;2023-10-19T05:17:42;98412.54;;;3.16;93.02
59073;BME280;44859;51.934;15.554;2023-10-19T05:20:50;98412.98;;;3.18;92.96
59073;BME280;44859;51.934;15.554;2023-10-19T05:23:34;98416.41;;;3.19;92.98
59073;BME280;44859;51.934;15.554;2023-10-19T05:26:16;98418.58;;;3.21;93.15
59073;BME280;44859;51.934;15.554;2023-10-19T05:28:54;98420.56;;;3.23;93.07
59073;BME280;44859;51.934;15.554;2023-10-19T05:31:31;98422.57;;;3.25;93.03
59073;BME280;44859;51.934;15.554;2023-10-19T05:34:14;98423.27;;;3.25;93.24
59073;BME280;44859;51.934;15.554;2023-10-19T05:37:01;98427.91;;;3.26;93.29
59073;BME280;44859;51.934;15.554;2023-10-19T05:39:42;98434.95;;;3.29;93.30
59073;BME280;44859;51.934;15.554;2023-10-19T05:42:16;98436.73;;;3.32;93.34
59073;BME280;44859;51.934;15.554;2023-10-19T05:45:50;98445.42;;;3.35;93.49
59073;BME280;44859;51.934;15.554;2023-10-19T05:48:53;98455.58;;;3.37;93.34
59073;BME280;44859;51.934;15.554;2023-10-19T05:55:32;98448.98;;;3.37;93.46
59073;BME280;44859;51.934;15.554;2023-10-19T05:58:27;98448.81;;;3.37;93.38
59073;BME280;44859;51.934;15.554;2023-10-19T06:01:32;98449.30;;;3.38;93.37
59073;BME280;44859;51.934;15.554;2023-10-19T06:05:19;98453.05;;;3.40;93.48
59073;BME280;44859;51.934;15.554;2023-10-19T06:08:01;98452.30;;;3.41;93.65
59073;BME280;44859;51.934;15.554;2023-10-19T06:10:53;98444.73;;;3.43;93.48
59073;BME280;44859;51.934;15.554;2023-10-19T06:16:52;98441.40;;;3.49;93.64
59073;BME280;44859;51.934;15.554;2023-10-19T06:20:03;98436.27;;;3.51;93.70
59073;BME280;44859;51.934;15.554;2023-10-19T06:22:57;98438.88;;;3.51;93.57
59073;BME280;44859;51.934;15.554;2023-10-19T06:25:33;98441.82;;;3.55;93.71
59073;BME280;44859;51.934;15.554;2023-10-19T06:31:14;98434.80;;;3.62;93.70
59073;BME280;44859;51.934;15.554;2023-10-19T06:34:10;98431.95;;;3.63;93.54
59073;BME280;44859;51.934;15.554;2023-10-19T06:36:56;98434.17;;;3.65;93.53
59073;BME280;44859;51.934;15.554;2023-10-19T06:39:24;98433.55;;;3.66;93.53
59073;BME280;44859;51.934;15.554;2023-10-19T06:41:56;98429.52;;;3.68;93.46
59073;BME280;44859;51.934;15.554;2023-10-19T06:44:32;98423.52;;;3.66;93.70
59073;BME280;44859;51.934;15.554;2023-10-19T06:47:29;98419.10;;;3.67;93.60
59073;BME280;44859;51.934;15.554;2023-10-19T06:49:57;98413.14;;;3.69;93.74
59073;BME280;44859;51.934;15.554;2023-10-19T06:52:28;98410.23;;;3.72;93.69
59073;BME280;44859;51.934;15.554;2023-10-19T06:55:17;98398.85;;;3.74;93.73
59073;BME280;44859;51.934;15.554;2023-10-19T06:58:15;98397.52;;;3.72;93.68
59073;BME280;44859;51.934;15.554;2023-10-19T07:03:53;98383.67;;;3.71;93.89
59073;BME280;44859;51.934;15.554;2023-10-19T07:06:26;98373.91;;;3.72;94.00
59073;BME280;44859;51.934;15.554;2023-10-19T07:09:11;98368.91;;;3.75;93.93
59073;BME280;44859;51.934;15.554;2023-10-19T07:11:55;98365.73;;;3.81;93.91
59073;BME280;44859;51.934;15.554;2023-10-19T07:14:25;98362.88;;;3.82;93.75
59073;BME280;44859;51.934;15.554;2023-10-19T07:17:18;98363.94;;;3.86;93.99
59073;BME280;44859;51.934;15.554;2023-10-19T07:20:02;98365.92;;;3.92;93.82
59073;BME280;44859;51.934;15.554;2023-10-19T07:22:40;98354.65;;;4.00;93.90
59073;BME280;44859;51.934;15.554;2023-10-19T07:25:26;98344.70;;;4.05;93.72
59073;BME280;44859;51.934;15.554;2023-10-19T07:28:17;98341.92;;;4.09;93.52
59073;BME280;44859;51.934;15.554;2023-10-19T07:30:48;98341.38;;;4.13;93.53
59073;BME280;44859;51.934;15.554;2023-10-19T07:33:21;98346.37;;;4.18;93.61
59073;BME280;44859;51.934;15.554;2023-10-19T07:35:52;98349.72;;;4.24;93.52
59073;BME280;44859;51.934;15.554;2023-10-19T07:38:55;98359.53;;;4.30;93.37
59073;BME280;44859;51.934;15.554;2023-10-19T07:41:52;98357.36;;;4.31;92.95
59073;BME280;44859;51.934;15.554;2023-10-19T07:45:15;98360.09;;;4.37;92.97
59073;BME280;44859;51.934;15.554;2023-10-19T07:47:46;98363.21;;;4.37;92.82
59073;BME280;44859;51.934;15.554;2023-10-19T07:50:20;98365.59;;;4.39;92.85
59073;BME280;44859;51.934;15.554;2023-10-19T07:52:59;98368.72;;;4.42;92.65
59073;BME280;44859;51.934;15.554;2023-10-19T07:55:30;98376.46;;;4.47;92.63
59073;BME280;44859;51.934;15.554;2023-10-19T07:58:41;98382.00;;;4.52;92.58
59073;BME280;44859;51.934;15.554;2023-10-19T08:01:12;98385.08;;;4.57;92.65
59073;BME280;44859;51.934;15.554;2023-10-19T08:03:59;98381.38;;;4.62;92.40
59073;BME280;44859;51.934;15.554;2023-10-19T08:06:39;98378.72;;;4.66;92.35
59073;BME280;44859;51.934;15.554;2023-10-19T08:09:13;98371.07;;;4.70;92.48
59073;BME280;44859;51.934;15.554;2023-10-19T08:11:58;98367.46;;;4.73;92.88
59073;BME280;44859;51.934;15.554;2023-10-19T08:14:32;98365.10;;;4.75;92.99
59073;BME280;44859;51.934;15.554;2023-10-19T08:17:05;98367.13;;;4.76;93.16
59073;BME280;44859;51.934;15.554;2023-10-19T08:19:39;98371.38;;;4.78;93.73
59073;BME280;44859;51.934;15.554;2023-10-19T08:25:28;98365.40;;;4.79;94.28
59073;BME280;44859;51.934;15.554;2023-10-19T08:28:21;98357.24;;;4.68;94.20
59073;BME280;44859;51.934;15.554;2023-10-19T08:31:08;98357.48;;;4.63;94.46
59073;BME280;44859;51.934;15.554;2023-10-19T08:33:37;98344.33;;;4.62;94.71
59073;BME280;44859;51.934;15.554;2023-10-19T08:36:19;98340.39;;;4.60;94.85
59073;BME280;44859;51.934;15.554;2023-10-19T08:38:56;98337.72;;;4.58;95.52
59073;BME280;44859;51.934;15.554;2023-10-19T08:41:29;98332.46;;;4.59;95.71
59073;BME280;44859;51.934;15.554;2023-10-19T08:44:27;98323.39;;;4.56;95.81
59073;BME280;44859;51.934;15.554;2023-10-19T08:47:17;98318.23;;;4.55;96.08
59073;BME280;44859;51.934;15.554;2023-10-19T08:50:20;98313.90;;;4.58;96.29
59073;BME280;44859;51.934;15.554;2023-10-19T08:53:19;98310.01;;;4.59;96.64
59073;BME280;44859;51.934;15.554;2023-10-19T08:56:09;98303.33;;;4.57;96.86
59073;BME280;44859;51.934;15.554;2023-10-19T08:59:29;98300.17;;;4.54;97.18
59073;BME280;44859;51.934;15.554;2023-10-19T09:02:12;98293.46;;;4.49;97.64
59073;BME280;44859;51.934;15.554;2023-10-19T09:04:51;98294.39;;;4.48;98.02
59073;BME280;44859;51.934;15.554;2023-10-19T09:07:21;98295.27;;;4.48;98.24
59073;BME280;44859;51.934;15.554;2023-10-19T09:09:57;98305.47;;;4.45;98.14
59073;BME280;44859;51.934;15.554;2023-10-19T09:12:38;98308.14;;;4.44;98.42
59073;BME280;44859;51.934;15.554;2023-10-19T09:15:56;98313.27;;;4.46;98.92
59073;BME280;44859;51.934;15.554;2023-10-19T09:19:21;98320.61;;;4.48;99.02
59073;BME280;44859;51.934;15.554;2023-10-19T09:21:48;98333.70;;;4.51;99.23
59073;BME280;44859;51.934;15.554;2023-10-19T09:24:28;98337.16;;;4.55;99.61
59073;BME280;44859;51.934;15.554;2023-10-19T09:27:28;98336.69;;;4.58;99.83
59073;BME280;44859;51.934;15.554;2023-10-19T09:30:02;98336.55;;;4.64;99.88
59073;BME280;44859;51.934;15.554;2023-10-19T09:32:47;98338.21;;;4.70;100.00
59073;BME280;44859;51.934;15.554;2023-10-19T09:35:50;98338.57;;;4.74;100.00
59073;BME280;44859;51.934;15.554;2023-10-19T09:38:59;98334.04;;;4.77;100.00
59073;BME280;44859;51.934;15.554;2023-10-19T09:45:00;98314.30;;;4.82;100.00
59073;BME280;44859;51.934;15.554;2023-10-19T09:48:54;98289.67;;;4.84;100.00
59073;BME280;44859;51.934;15.554;2023-10-19T09:51:25;98284.52;;;4.79;100.00
59073;BME280;44859;51.934;15.554;2023-10-19T09:58:15;98335.33;;;4.90;100.00
59073;BME280;44859;51.934;15.554;2023-10-19T10:00:27;98313.51;;;4.88;100.00
59073;BME280;44859;51.934;15.554;2023-10-19T10:06:58;98291.65;;;4.86;100.00
59073;BME280;44859;51.934;15.554;2023-10-19T10:10:09;98274.75;;;4.87;100.00
59073;BME280;44859;51.934;15.554;2023-10-19T10:12:46;98264.71;;;4.90;100.00
59073;BME280;44859;51.934;15.554;2023-10-19T10:15:19;98264.05;;;4.96;100.00
59073;BME280;44859;51.934;15.554;2023-10-19T10:18:18;98257.95;;;5.00;100.00
59073;BME280;44859;51.934;15.554;2023-10-19T10:24:17;98246.60;;;4.97;100.00
59073;BME280;44859;51.934;15.554;2023-10-19T10:26:59;98248.56;;;4.96;100.00
59073;BME280;44859;51.934;15.554;2023-10-19T10:30:02;98249.25;;;4.93;100.00
59073;BME280;44859;51.934;15.554;2023-10-19T10:33:06;98242.40;;;4.97;100.00
59073;BME280;44859;51.934;15.554;2023-10-19T10:42:16;98253.56;;;5.03;100.00
59073;BME280;44859;51.934;15.554;2023-10-19T10:45:20;98226.81;;;5.07;100.00
59073;BME280;44859;51.934;15.554;2023-10-19T10:48:42;98222.76;;;5.08;100.00
59073;BME280;44859;51.934;15.554;2023-10-19T10:52:07;98223.39;;;5.09;100.00
59073;BME280;44859;51.934;15.554;2023-10-19T10:54:32;98228.68;;;5.00;100.00
59073;BME280;44859;51.934;15.554;2023-10-19T10:58:04;98222.15;;;4.99;100.00
59073;BME280;44859;51.934;15.554;2023-10-19T11:00:48;98214.71;;;5.01;100.00
59073;BME280;44859;51.934;15.554;2023-10-19T11:08:08;98222.75;;;5.08;100.00
59073;BME280;44859;51.934;15.554;2023-10-19T11:14:35;98192.43;;;5.09;100.00
59073;BME280;44859;51.934;15.554;2023-10-19T11:17:12;98182.44;;;5.10;100.00
59073;BME280;44859;51.934;15.554;2023-10-19T11:19:58;98176.73;;;5.10;100.00
59073;BME280;44859;51.934;15.554;2023-10-19T11:22:56;98176.13;;;5.11;100.00
59073;BME280;44859;51.934;15.554;2023-10-19T11:26:02;98174.33;;;5.16;100.00
59073;BME280;44859;51.934;15.554;2023-10-19T11:28:56;98171.73;;;5.21;100.00
59073;BME280;44859;51.934;15.554;2023-10-19T11:32:05;98172.42;;;5.25;100.00
59073;BME280;44859;51.934;15.554;2023-10-19T11:34:50;98169.33;;;5.25;100.00
59073;BME280;44859;51.934;15.554;2023-10-19T11:37:49;98166.15;;;5.29;100.00
59073;BME280;44859;51.934;15.554;2023-10-19T11:40:42;98162.27;;;5.29;100.00
59073;BME280;44859;51.934;15.554;2023-10-19T11:46:51;98151.89;;;5.34;100.00
59073;BME280;44859;51.934;15.554;2023-10-19T11:49:27;98152.56;;;5.35;100.00
59073;BME280;44859;51.934;15.554;2023-10-19T11:52:27;98159.38;;;5.31;100.00
59073;BME280;44859;51.934;15.554;2023-10-19T11:55:04;98162.41;;;5.33;100.00
59073;BME280;44859;51.934;15.554;2023-10-19T11:57:44;98164.80;;;5.37;100.00
59073;BME280;44859;51.934;15.554;2023-10-19T12:00:29;98164.36;;;5.36;100.00
59073;BME280;44859;51.934;15.554;2023-10-19T12:03:22;98163.69;;;5.39;100.00
59073;BME280;44859;51.934;15.554;2023-10-19T12:06:23;98155.87;;;5.38;100.00
59073;BME280;44859;51.934;15.554;2023-10-19T12:11:58;98137.21;;;5.39;100.00
59073;BME280;44859;51.934;15.554;2023-10-19T12:17:43;98128.48;;;5.39;100.00
59073;BME280;44859;51.934;15.554;2023-10-19T12:20:34;98127.00;;;5.42;100.00
59073;BME280;44859;51.934;15.554;2023-10-19T12:23:57;98115.48;;;5.45;100.00
59073;BME280;44859;51.934;15.554;2023-10-19T12:26:37;98116.79;;;5.47;100.00
59073;BME280;44859;51.934;15.554;2023-10-19T12:29:22;98120.26;;;5.47;100.00
59073;BME280;44859;51.934;15.554;2023-10-19T12:32:05;98114.70;;;5.50;100.00
59073;BME280;44859;51.934;15.554;2023-10-19T12:35:09;98116.36;;;5.51;100.00
59073;BME280;44859;51.934;15.554;2023-10-19T12:37:59;98110.48;;;5.54;100.00
59073;BME280;44859;51.934;15.554;2023-10-19T12:41:04;98098.50;;;5.56;100.00
59073;BME280;44859;51.934;15.554;2023-10-19T12:43:51;98099.60;;;5.58;100.00
59073;BME280;44859;51.934;15.554;2023-10-19T12:46:51;98103.05;;;5.56;100.00
59073;BME280;44859;51.934;15.554;2023-10-19T12:50:09;98102.66;;;5.60;100.00
59073;BME280;44859;51.934;15.554;2023-10-19T12:53:28;98104.98;;;5.65;100.00
59073;BME280;44859;51.934;15.554;2023-10-19T12:59:28;98096.41;;;5.72;100.00
59073;BME280;44859;51.934;15.554;2023-10-19T13:02:28;98105.02;;;5.77;100.00
59073;BME280;44859;51.934;15.554;2023-10-19T13:05:14;98111.73;;;5.81;100.00
59073;BME280;44859;51.934;15.554;2023-10-19T13:07:49;98112.56;;;5.82;100.00
59073;BME280;44859;51.934;15.554;2023-10-19T13:11:03;98108.76;;;5.75;100.00
59073;BME280;44859;51.934;15.554;2023-10-19T13:13:53;98102.46;;;5.73;100.00
59073;BME280;44859;51.934;15.554;2023-10-19T13:16:57;98102.45;;;5.70;100.00
59073;BME280;44859;51.934;15.554;2023-10-19T13:19:52;98097.58;;;5.70;100.00
59073;BME280;44859;51.934;15.554;2023-10-19T13:22:53;98095.46;;;5.70;100.00
59073;BME280;44859;51.934;15.554;2023-10-19T13:25:32;98092.40;;;5.72;100.00
59073;BME280;44859;51.934;15.554;2023-10-19T13:28:21;98091.98;;;5.73;100.00
59073;BME280;44859;51.934;15.554;2023-10-19T13:31:02;98088.71;;;5.72;100.00
59073;BME280;44859;51.934;15.554;2023-10-19T13:34:28;98087.60;;;5.77;100.00
59073;BME280;44859;51.934;15.554;2023-10-19T13:37:57;98085.73;;;5.79;100.00
59073;BME280;44859;51.934;15.554;2023-10-19T13:47:15;98109.59;;;5.88;100.00
59073;BME280;44859;51.934;15.554;2023-10-19T13:50:06;98108.23;;;5.91;100.00
59073;BME280;44859;51.934;15.554;2023-10-19T13:52:45;98106.95;;;5.92;100.00
59073;BME280;44859;51.934;15.554;2023-10-19T13:55:43;98099.25;;;5.90;100.00
59073;BME280;44859;51.934;15.554;2023-10-19T13:58:17;98093.02;;;5.89;100.00
59073;BME280;44859;51.934;15.554;2023-10-19T14:01:27;98084.46;;;5.89;100.00
59073;BME280;44859;51.934;15.554;2023-10-19T14:04:10;98079.23;;;5.92;100.00
59073;BME280;44859;51.934;15.554;2023-10-19T14:06:59;98078.27;;;5.94;100.00
59073;BME280;44859;51.934;15.554;2023-10-19T14:10:02;98081.54;;;5.95;100.00
59073;BME280;44859;51.934;15.554;2023-10-19T14:12:37;98076.45;;;5.96;100.00
59073;BME280;44859;51.934;15.554;2023-10-19T14:15:38;98073.43;;;5.93;100.00
59073;BME280;44859;51.934;15.554;2023-10-19T14:18:31;98069.75;;;5.94;100.00
59073;BME280;44859;51.934;15.554;2023-10-19T14:25:01;98067.02;;;5.95;100.00
59073;BME280;44859;51.934;15.554;2023-10-19T14:28:07;98060.27;;;5.95;100.00
59073;BME280;44859;51.934;15.554;2023-10-19T14:30:44;98055.13;;;5.97;100.00
59073;BME280;44859;51.934;15.554;2023-10-19T14:33:52;98047.16;;;5.99;100.00
59073;BME280;44859;51.934;15.554;2023-10-19T14:36:44;98043.27;;;6.00;100.00
59073;BME280;44859;51.934;15.554;2023-10-19T14:39:46;98045.97;;;5.99;100.00
59073;BME280;44859;51.934;15.554;2023-10-19T14:42:17;98052.05;;;5.99;100.00
59073;BME280;44859;51.934;15.554;2023-10-19T14:45:24;98053.67;;;6.01;100.00
59073;BME280;44859;51.934;15.554;2023-10-19T14:48:14;98049.92;;;6.00;100.00
59073;BME280;44859;51.934;15.554;2023-10-19T14:51:08;98049.74;;;6.00;100.00
59073;BME280;44859;51.934;15.554;2023-10-19T14:54:35;98050.13;;;5.99;100.00
59073;BME280;44859;51.934;15.554;2023-10-19T14:57:25;98040.59;;;5.98;100.00
59073;BME280;44859;51.934;15.554;2023-10-19T15:00:02;98039.90;;;5.98;100.00
59073;BME280;44859;51.934;15.554;2023-10-19T15:02:54;98040.59;;;5.98;100.00
59073;BME280;44859;51.934;15.554;2023-10-19T15:05:33;98035.25;;;6.00;100.00
59073;BME280;44859;51.934;15.554;2023-10-19T15:08:21;98035.86;;;6.02;100.00
59073;BME280;44859;51.934;15.554;2023-10-19T15:11:30;98039.78;;;6.03;100.00
59073;BME280;44859;51.934;15.554;2023-10-19T15:14:12;98033.33;;;6.03;100.00
59073;BME280;44859;51.934;15.554;2023-10-19T15:16:46;98030.60;;;6.02;100.00
59073;BME280;44859;51.934;15.554;2023-10-19T15:19:44;98027.18;;;6.01;100.00
59073;BME280;44859;51.934;15.554;2023-10-19T15:22:29;98030.66;;;6.01;100.00
59073;BME280;44859;51.934;15.554;2023-10-19T15:25:21;98028.20;;;6.02;100.00
59073;BME280;44859;51.934;15.554;2023-10-19T15:28:05;98030.64;;;6.02;100.00
59073;BME280;44859;51.934;15.554;2023-10-19T15:30:40;98023.58;;;6.00;100.00
59073;BME280;44859;51.934;15.554;2023-10-19T15:33:23;98016.92;;;6.01;100.00
59073;BME280;44859;51.934;15.554;2023-10-19T15:35:54;98023.14;;;6.02;100.00
59073;BME280;44859;51.934;15.554;2023-10-19T15:38:22;98024.86;;;6.02;100.00
59073;BME280;44859;51.934;15.554;2023-10-19T15:40:51;98026.90;;;6.03;100.00
59073;BME280;44859;51.934;15.554;2023-10-19T15:43:37;98030.72;;;6.03;100.00
59073;BME280;44859;51.934;15.554;2023-10-19T15:49:15;98040.77;;;6.04;100.00
59073;BME280;44859;51.934;15.554;2023-10-19T15:51:48;98042.63;;;6.02;100.00
59073;BME280;44859;51.934;15.554;2023-10-19T15:54:22;98045.98;;;6.02;100.00
59073;BME280;44859;51.934;15.554;2023-10-19T15:57:07;98051.72;;;6.02;100.00
59073;BME280;44859;51.934;15.554;2023-10-19T15:59:37;98057.96;;;6.02;100.00
59073;BME280;44859;51.934;15.554;2023-10-19T16:02:16;98056.67;;;5.97;100.00
59073;BME280;44859;51.934;15.554;2023-10-19T16:04:50;98049.90;;;5.93;100.00
59073;BME280;44859;51.934;15.554;2023-10-19T16:07:19;98044.55;;;5.92;100.00
59073;BME280;44859;51.934;15.554;2023-10-19T16:09:53;98043.73;;;5.92;100.00
59073;BME280;44859;51.934;15.554;2023-10-19T16:12:32;98042.10;;;5.90;100.00
59073;BME280;44859;51.934;15.554;2023-10-19T16:16:04;98042.95;;;5.90;100.00
59073;BME280;44859;51.934;15.554;2023-10-19T16:18:51;98041.57;;;5.90;100.00
59073;BME280;44859;51.934;15.554;2023-10-19T16:21:33;98040.56;;;5.89;100.00
59073;BME280;44859;51.934;15.554;2023-10-19T16:24:23;98038.02;;;5.91;100.00
59073;BME280;44859;51.934;15.554;2023-10-19T16:27:11;98031.76;;;5.88;100.00
59073;BME280;44859;51.934;15.554;2023-10-19T16:30:46;98026.03;;;5.85;100.00
59073;BME280;44859;51.934;15.554;2023-10-19T16:34:16;98025.27;;;5.83;100.00
59073;BME280;44859;51.934;15.554;2023-10-19T16:36:50;98022.73;;;5.82;100.00
59073;BME280;44859;51.934;15.554;2023-10-19T16:39:57;98029.06;;;5.80;100.00
59073;BME280;44859;51.934;15.554;2023-10-19T16:42:39;98039.05;;;5.79;100.00
59073;BME280;44859;51.934;15.554;2023-10-19T16:45:07;98041.90;;;5.78;100.00
59073;BME280;44859;51.934;15.554;2023-10-19T16:48:01;98039.85;;;5.80;100.00
59073;BME280;44859;51.934;15.554;2023-10-19T16:51:00;98037.69;;;5.82;100.00
59073;BME280;44859;51.934;15.554;2023-10-19T16:56:22;98032.23;;;5.77;100.00
59073;BME280;44859;51.934;15.554;2023-10-19T16:59:41;98035.36;;;5.73;100.00
59073;BME280;44859;51.934;15.554;2023-10-19T17:02:35;98036.86;;;5.74;100.00
59073;BME280;44859;51.934;15.554;2023-10-19T17:13:59;98021.90;;;5.71;100.00
59073;BME280;44859;51.934;15.554;2023-10-19T17:16:42;98017.77;;;5.67;100.00
59073;BME280;44859;51.934;15.554;2023-10-19T17:19:22;98021.10;;;5.67;100.00
59073;BME280;44859;51.934;15.554;2023-10-19T17:22:02;98024.14;;;5.69;100.00
59073;BME280;44859;51.934;15.554;2023-10-19T17:28:02;98023.58;;;5.70;100.00
59073;BME280;44859;51.934;15.554;2023-10-19T17:31:17;98026.05;;;5.66;100.00
59073;BME280;44859;51.934;15.554;2023-10-19T17:34:32;98024.09;;;5.63;100.00